Decoded Metar for LFTW (NIMES in FRANCE) (IATA:FNI) | Meteo·Mobile Aviation Weather
aviador You're here:

LFTW Decoded Metar

NIMES in FRANCE
Report Time2019-10-21 07:30:00
UTC Time2019-10-21 07:59:42
Flight Rules vfr VFR
WindVRB at 03 kt
Visibility9999 m
Phenomena:N/A
Clouds:N/A
CeilingNone
Temp16°C (ISA +2)
Dew Point16°C (100% RH)
QNH1016 hPa
Density Alt650 ft
Elevation315 ft
Report Wrong Elevation
Raw Report
LFTW 210730Z AUTO VRB03KT 9999 ///CB 16/16 Q1016 TEMPO 4000
SHRA=

Extra information for LFTW:More info

Metar Taf Metar & Taf Last 4 Metars F.Rules Stats Wind Profile Meteogram Temp Stats Airport Information Weather charts Add Link Nearby VenuesMetar ALERT Operation Metar Decoded Social comments